Time;durP1;ratioP1;P1;durP2;ratioP2;P2;SDS_P1;SDS_P2;PMS_P1;PMS_P2;Temp;Humidity;BMP_temperature;BMP_pressure;BME280_temperature;BME280_humidity;BME280_pressure;Samples;Min_cycle;Max_cycle;Signal;HPM_P1;HPM_P2
2022/06/17 00:06:41;;;;;;;9.33;2.67;;;;;;;18.47;97.29;101532.31;6151927;23;20380;-92
2022/06/17 00:09:45;;;;;;;13.20;2.40;;;;;;;18.49;98.44;101519.09;6116308;23;20397;-94
2022/06/17 00:12:21;;;;;;;8.40;2.67;;;;;;;18.55;99.13;101523.72;6133727;23;20546;-93
2022/06/17 00:15:14;;;;;;;9.30;2.93;;;;;;;18.46;99.04;101508.50;6109826;23;20408;-92
2022/06/17 00:18:08;;;;;;;8.13;2.30;;;;;;;18.55;98.62;101522.88;6114417;23;20884;-92
2022/06/17 00:24:27;;;;;;;11.40;3.03;;;;;;;18.43;99.53;101485.97;6159396;23;20364;-94
2022/06/17 00:27:08;;;;;;;16.73;3.00;;;;;;;18.45;100.00;101481.88;6134131;23;20405;-96
2022/06/17 00:33:09;;;;;;;13.77;3.10;;;;;;;18.61;100.00;101497.09;6157496;23;20507;-95
2022/06/17 00:35:47;;;;;;;13.20;2.20;;;;;;;18.64;100.00;101493.88;6111009;23;20409;-94
2022/06/17 00:38:56;;;;;;;17.07;2.70;;;;;;;18.67;100.00;101489.78;6183258;23;20381;-96
2022/06/17 00:41:29;;;;;;;12.47;2.80;;;;;;;18.74;100.00;101483.09;6162291;23;20416;-95
2022/06/17 00:44:26;;;;;;;13.40;3.10;;;;;;;18.82;100.00;101479.19;6164071;23;20966;-94
2022/06/17 00:50:37;;;;;;;9.43;3.13;;;;;;;18.95;100.00;101484.56;6159854;23;20417;-95
2022/06/17 00:53:27;;;;;;;14.10;2.67;;;;;;;18.97;100.00;101490.72;6136954;23;20448;-96
2022/06/17 00:56:22;;;;;;;9.23;2.60;;;;;;;18.98;100.00;101484.09;6134729;23;20409;-95
2022/06/17 00:59:18;;;;;;;16.23;3.47;;;;;;;19.00;100.00;101487.50;6088882;23;20417;-94
2022/06/17 01:06:03;;;;;;;9.90;3.00;;;;;;;18.97;100.00;101483.25;6162894;23;20380;-95
2022/06/17 01:12:12;;;;;;;12.03;2.53;;;;;;;18.96;100.00;101469.63;6084117;22;20457;-96
2022/06/17 01:15:02;;;;;;;13.47;3.10;;;;;;;18.97;100.00;101465.78;6116656;23;20431;-94
2022/06/17 01:17:50;;;;;;;8.40;2.57;;;;;;;19.08;100.00;101478.84;6109436;23;20898;-96
2022/06/17 01:23:59;;;;;;;15.00;3.53;;;;;;;19.09;100.00;101472.25;6157570;23;20705;-95
2022/06/17 01:30:12;;;;;;;15.47;2.77;;;;;;;19.01;100.00;101468.94;6184086;23;20389;-95
2022/06/17 01:36:26;;;;;;;11.07;3.00;;;;;;;18.89;100.00;101466.09;6184076;23;20375;-96
2022/06/17 01:38:56;;;;;;;11.20;2.80;;;;;;;18.93;100.00;101470.09;6112334;23;20409;-94
2022/06/17 01:41:26;;;;;;;11.93;2.57;;;;;;;19.01;100.00;101478.13;6135609;23;20405;-93
2022/06/17 01:43:58;;;;;;;11.10;3.60;;;;;;;19.05;100.00;101484.84;6135535;23;20409;-92
2022/06/17 01:46:38;;;;;;;14.93;2.50;;;;;;;19.00;100.00;101470.88;6134424;23;20403;-95
2022/06/17 01:49:09;;;;;;;17.40;3.23;;;;;;;19.01;100.00;101471.72;6182484;22;20427;-95
2022/06/17 01:51:39;;;;;;;10.60;3.00;;;;;;;18.92;100.00;101460.09;6159419;23;20455;-95
2022/06/17 01:54:09;;;;;;;8.40;2.90;;;;;;;18.95;100.00;101473.50;6164468;23;20427;-93
2022/06/17 01:57:10;;;;;;;8.43;2.70;;;;;;;18.99;100.00;101483.03;6129674;23;20424;-95
2022/06/17 02:00:13;;;;;;;10.20;3.17;;;;;;;18.94;100.00;101492.03;6169812;23;20407;-96
2022/06/17 02:02:46;;;;;;;13.03;2.83;;;;;;;18.89;100.00;101491.03;6139504;23;20474;-96
2022/06/17 02:05:33;;;;;;;9.70;2.53;;;;;;;18.85;100.00;101484.28;6141660;23;20411;-95
2022/06/17 02:08:14;;;;;;;8.20;2.40;;;;;;;18.73;100.00;101469.47;6139918;23;20412;-96
2022/06/17 02:10:45;;;;;;;14.27;2.90;;;;;;;18.70;100.00;101478.25;6141017;23;20415;-95
2022/06/17 02:14:07;;;;;;;11.13;3.13;;;;;;;18.77;100.00;101493.72;6117182;23;20926;-95
2022/06/17 02:17:20;;;;;;;11.40;2.80;;;;;;;18.70;100.00;101504.00;6190607;23;20400;-95
2022/06/17 02:19:56;;;;;;;11.27;2.80;;;;;;;18.65;100.00;101489.19;6140766;23;20494;-95
2022/06/17 02:22:41;;;;;;;10.53;2.90;;;;;;;18.52;100.00;101476.25;6141603;23;20412;-95
2022/06/17 02:25:47;;;;;;;7.03;2.17;;;;;;;18.62;100.00;101504.31;6116671;23;20408;-95
2022/06/17 02:28:30;;;;;;;7.40;2.17;;;;;;;18.62;100.00;101507.09;6168104;23;20435;-96
2022/06/17 02:31:00;;;;;;;7.87;2.03;;;;;;;18.52;100.00;101493.72;6116560;23;20459;-96
2022/06/17 02:33:32;;;;;;;7.67;2.40;;;;;;;18.54;100.00;101497.13;6140589;23;20546;-95
2022/06/17 02:36:24;;;;;;;11.80;2.90;;;;;;;18.57;100.00;101516.03;6141268;23;20415;-95
2022/06/17 02:39:30;;;;;;;9.73;2.27;;;;;;;18.54;100.00;101516.50;6164807;23;20484;-95
2022/06/17 02:41:58;;;;;;;8.50;2.57;;;;;;;18.37;100.00;101496.00;6165273;23;20412;-94
2022/06/17 02:44:56;;;;;;;7.67;2.10;;;;;;;18.46;100.00;101527.03;6115384;23;20408;-94
2022/06/17 02:51:13;;;;;;;10.43;2.47;;;;;;;18.33;100.00;101507.75;6188770;23;20364;-94
2022/06/17 02:53:42;;;;;;;10.13;2.50;;;;;;;18.32;100.00;101506.91;6109322;23;20448;-95
2022/06/17 02:59:36;;;;;;;8.80;2.33;;;;;;;18.24;100.00;101494.22;6158112;23;20436;-95
2022/06/17 03:02:40;;;;;;;12.67;2.67;;;;;;;18.39;100.00;101507.69;6110087;23;20389;-95
2022/06/17 03:05:38;;;;;;;10.63;2.50;;;;;;;18.40;100.00;101514.94;6132170;23;20444;-94
2022/06/17 03:08:48;;;;;;;12.10;3.00;;;;;;;18.40;100.00;101509.41;6156536;23;20742;-94
2022/06/17 03:11:31;;;;;;;12.63;2.93;;;;;;;18.37;100.00;101497.94;6157048;23;20760;-94
2022/06/17 03:14:25;;;;;;;15.33;2.13;;;;;;;18.38;100.00;101503.22;6133022;23;20437;-94
2022/06/17 03:20:40;;;;;;;9.83;2.90;;;;;;;18.24;100.00;101507.19;6158567;23;20726;-95
2022/06/17 03:23:13;;;;;;;11.40;2.50;;;;;;;18.22;100.00;101510.19;6132817;23;20413;-96
2022/06/17 03:29:22;;;;;;;9.03;2.60;;;;;;;18.11;100.00;101507.28;6158788;23;20380;-95
2022/06/17 03:32:07;;;;;;;6.70;2.37;;;;;;;18.15;100.00;101505.78;6108350;23;20413;-96
2022/06/17 03:34:43;;;;;;;12.70;3.20;;;;;;;18.10;100.00;101505.59;6109928;23;20521;-96
2022/06/17 03:40:41;;;;;;;9.17;2.43;;;;;;;18.00;100.00;101497.81;6159189;23;20464;-95
2022/06/17 03:43:30;;;;;;;11.93;3.17;;;;;;;18.09;100.00;101501.97;6109477;23;20751;-95
2022/06/17 03:46:50;;;;;;;9.37;2.30;;;;;;;18.12;100.00;101500.69;6133347;23;20786;-96
2022/06/17 03:50:11;;;;;;;10.77;2.50;;;;;;;18.15;100.00;101505.78;6159800;23;20413;-94
2022/06/17 03:53:20;;;;;;;7.43;1.90;;;;;;;18.05;100.00;101483.31;6113199;23;20447;-95
2022/06/17 03:56:04;;;;;;;9.80;2.50;;;;;;;18.11;100.00;101496.22;6161156;23;20409;-95
2022/06/17 03:58:34;;;;;;;12.30;2.47;;;;;;;18.13;100.00;101510.69;6135686;23;20448;-95
2022/06/17 04:01:11;;;;;;;11.93;3.13;;;;;;;18.09;100.00;101504.75;6134441;23;20393;-95
2022/06/17 04:03:40;;;;;;;17.60;3.03;;;;;;;18.04;100.00;101490.75;6161043;23;20397;-94
2022/06/17 04:06:11;;;;;;;7.03;2.03;;;;;;;17.99;100.00;101479.50;6135556;23;20425;-94
2022/06/17 04:09:03;;;;;;;8.80;2.60;;;;;;;17.86;100.00;101471.34;6159762;23;20396;-95
2022/06/17 04:11:47;;;;;;;11.10;2.60;;;;;;;18.00;100.00;101483.13;6150009;23;20456;-95
2022/06/17 04:15:00;;;;;;;10.70;2.97;;;;;;;17.97;100.00;101480.81;6135065;23;20479;-95
2022/06/17 04:17:54;;;;;;;7.37;2.20;;;;;;;17.98;100.00;101476.97;6160186;23;20409;-95
2022/06/17 04:24:13;;;;;;;12.23;2.60;;;;;;;17.68;100.00;101449.13;6160060;23;20377;-96
2022/06/17 04:26:43;;;;;;;9.53;2.47;;;;;;;17.69;100.00;101456.34;6133800;23;20464;-95
2022/06/17 04:33:01;;;;;;;13.23;3.00;;;;;;;17.78;100.00;101472.44;6159064;23;20855;-95
2022/06/17 04:35:45;;;;;;;24.87;4.30;;;;;;;17.79;100.00;101467.75;6135170;23;20463;-96
2022/06/17 04:38:30;;;;;;;8.60;2.00;;;;;;;17.78;100.00;101464.13;6134616;23;20460;-95
2022/06/17 04:41:04;;;;;;;11.73;2.50;;;;;;;17.75;100.00;101461.81;6134293;23;20732;-95
2022/06/17 04:43:47;;;;;;;5.83;2.10;;;;;;;17.64;100.00;101448.72;6133685;23;20444;-94
2022/06/17 04:46:41;;;;;;;10.70;2.90;;;;;;;17.68;100.00;101462.94;6133197;23;20409;-95
2022/06/17 04:52:49;;;;;;;14.83;2.87;;;;;;;17.56;100.00;101430.44;6175247;23;20475;-94
2022/06/17 04:55:34;;;;;;;7.40;2.50;;;;;;;17.69;100.00;101461.88;6113051;23;20415;-94
2022/06/17 04:58:34;;;;;;;13.23;3.83;;;;;;;17.56;100.00;101441.50;6137300;23;20773;-94
2022/06/17 05:01:34;;;;;;;14.17;2.73;;;;;;;17.61;100.00;101454.66;6135508;23;20423;-94
2022/06/17 05:04:13;;;;;;;13.17;3.20;;;;;;;17.57;100.00;101440.44;6138744;23;20408;-94
2022/06/17 05:06:41;;;;;;;12.87;3.63;;;;;;;17.45;100.00;101422.03;6138149;23;20478;-96
2022/06/17 05:09:34;;;;;;;8.03;2.80;;;;;;;17.47;100.00;101419.88;6139346;23;20416;-96
2022/06/17 05:12:05;;;;;;;5.60;2.17;;;;;;;17.41;100.00;101416.09;6164995;23;20402;-93
2022/06/17 05:14:42;;;;;;;9.83;2.50;;;;;;;17.43;100.00;101422.25;6164965;23;20448;-94
2022/06/17 05:17:09;;;;;;;10.70;2.53;;;;;;;17.42;100.00;101428.84;6165383;23;20399;-94
2022/06/17 05:19:41;;;;;;;6.80;3.00;;;;;;;17.43;100.00;101440.75;6134843;23;20439;-95
2022/06/17 05:22:53;;;;;;;7.63;2.03;;;;;;;17.41;100.00;101442.88;6138135;23;20412;-95
2022/06/17 05:32:52;;;;;;;8.50;2.33;;;;;;;17.36;100.00;101442.69;6188652;23;20371;-95
2022/06/17 05:35:40;;;;;;;7.70;2.13;;;;;;;17.44;100.00;101443.28;6112969;23;20788;-95
2022/06/17 05:41:49;;;;;;;14.33;2.90;;;;;;;17.53;100.00;101446.63;6189369;23;20383;-95
2022/06/17 05:44:32;;;;;;;11.27;2.40;;;;;;;17.46;100.00;101423.72;6137771;23;20440;-96
2022/06/17 05:47:17;;;;;;;13.57;3.13;;;;;;;17.54;100.00;101417.91;6138693;23;20404;-96
2022/06/17 06:05:04;;;;;;;8.20;2.93;;;;;;;17.98;100.00;101427.19;6189221;23;20427;-92
2022/06/17 06:15:39;;;;;;;11.37;3.80;;;;;;;18.44;100.00;101408.22;6157672;23;20467;-94
2022/06/17 06:18:21;;;;;;;15.87;3.60;;;;;;;18.55;100.00;101395.53;6133736;23;20450;-96
2022/06/17 06:24:42;;;;;;;8.33;3.07;;;;;;;18.80;100.00;101389.94;6157735;23;20876;-95
2022/06/17 06:27:34;;;;;;;7.53;2.50;;;;;;;19.07;100.00;101416.19;6108820;23;20411;-95
2022/06/17 06:30:32;;;;;;;7.27;2.40;;;;;;;19.17;100.00;101410.13;6145021;23;20451;-94
2022/06/17 06:33:16;;;;;;;5.43;2.33;;;;;;;19.16;100.00;101414.81;6128257;23;20460;-96
2022/06/17 06:43:15;;;;;;;15.47;2.50;;;;;;;19.54;100.00;101427.53;6159460;23;20409;-93
2022/06/17 07:27:54;;;;;;;9.63;1.80;;;;;;;20.53;100.00;101476.69;6164747;23;20360;-96
2022/06/17 07:30:54;;;;;;;14.63;1.90;;;;;;;20.65;100.00;101479.44;6157557;23;20413;-92
2022/06/17 07:33:36;;;;;;;9.87;1.70;;;;;;;20.66;100.00;101482.00;6141786;23;20535;-96
2022/06/17 07:40:08;;;;;;;14.10;2.03;;;;;;;20.80;99.81;101484.50;6189520;23;20375;-94
2022/06/17 07:46:16;;;;;;;10.67;1.90;;;;;;;20.87;98.39;101476.91;6188296;23;20387;-96
2022/06/17 07:49:09;;;;;;;8.97;1.77;;;;;;;21.00;97.96;101479.41;6114289;23;20416;-96
2022/06/17 07:51:37;;;;;;;5.73;1.50;;;;;;;21.09;97.06;101479.88;6161600;23;20408;-95
2022/06/17 07:54:10;;;;;;;6.33;1.97;;;;;;;21.12;95.83;101479.38;6137555;23;20455;-95
2022/06/17 08:00:44;;;;;;;6.20;1.63;;;;;;;21.26;94.77;101492.78;6190005;23;20428;-93
2022/06/17 08:03:27;;;;;;;5.30;1.63;;;;;;;21.28;94.31;101475.88;6137274;23;20925;-93
2022/06/17 08:06:03;;;;;;;3.70;1.30;;;;;;;21.41;93.96;101488.63;6137598;23;20407;-94
2022/06/17 08:08:33;;;;;;;12.27;2.00;;;;;;;21.49;93.16;101485.47;6113169;23;20407;-96
2022/06/17 08:18:29;;;;;;;7.33;1.70;;;;;;;21.57;90.02;101476.69;6187394;23;20419;-94
2022/06/17 08:25:25;;;;;;;7.80;1.90;;;;;;;21.86;88.42;101497.88;6156616;23;20779;-94
2022/06/17 08:27:58;;;;;;;4.90;1.30;;;;;;;21.89;87.73;101491.78;6161398;23;20412;-94
2022/06/17 08:34:13;;;;;;;16.33;1.70;;;;;;;22.19;84.98;101490.66;6186922;23;20447;-96
2022/06/17 08:36:42;;;;;;;22.00;2.30;;;;;;;22.14;84.77;101496.13;6113666;23;20486;-95
2022/06/17 08:39:10;;;;;;;14.30;1.57;;;;;;;22.09;84.67;101491.34;6137533;23;20507;-95
2022/06/17 08:42:02;;;;;;;12.87;1.80;;;;;;;22.17;85.35;101493.69;6113448;23;20474;-95
2022/06/17 08:44:50;;;;;;;8.57;2.40;;;;;;;22.36;84.24;101513.78;6114661;23;20903;-95
2022/06/17 08:47:35;;;;;;;5.73;1.33;;;;;;;22.44;83.66;101510.59;6161589;23;20895;-95
2022/06/17 08:50:39;;;;;;;7.43;2.00;;;;;;;22.62;83.64;101501.97;6138125;23;20408;-95
2022/06/17 08:57:32;;;;;;;10.20;1.17;;;;;;;23.25;81.31;101497.88;6187381;23;20376;-95
2022/06/17 09:00:25;;;;;;;8.40;1.37;;;;;;;23.51;79.68;101498.16;6161567;23;20494;-95
2022/06/17 09:06:58;;;;;;;9.90;1.30;;;;;;;24.07;77.87;101503.25;6187314;23;20387;-94
2022/06/17 09:10:15;;;;;;;5.87;1.47;;;;;;;24.38;77.03;101500.75;6161806;23;20420;-95
2022/06/17 09:16:16;;;;;;;11.20;2.17;;;;;;;24.81;75.74;101490.44;6187224;23;20392;-94
2022/06/17 09:22:56;;;;;;;14.07;2.60;;;;;;;25.15;74.44;101491.78;6187251;23;20508;-95
2022/06/17 09:25:29;;;;;;;7.20;2.20;;;;;;;25.11;73.79;101485.03;6161157;23;20466;-96
2022/06/17 09:28:43;;;;;;;15.70;2.67;;;;;;;25.24;73.25;101492.06;6136929;23;20419;-94
2022/06/17 09:31:58;;;;;;;6.67;1.77;;;;;;;25.33;72.78;101493.25;6161367;23;20768;-95
2022/06/17 09:34:57;;;;;;;11.43;2.53;;;;;;;25.35;72.45;101491.84;6155801;23;20445;-95
2022/06/17 09:41:42;;;;;;;12.83;3.10;;;;;;;25.65;71.18;101490.28;6157245;23;20859;-95
2022/06/17 09:48:18;;;;;;;7.53;2.00;;;;;;;25.83;69.88;101486.97;6158011;23;20428;-94
2022/06/17 09:54:42;;;;;;;9.50;3.03;;;;;;;26.02;69.28;101496.50;6157304;23;20487;-96
2022/06/17 09:57:18;;;;;;;8.13;2.23;;;;;;;26.11;68.65;101488.41;6155916;23;20396;-95
2022/06/17 10:00:09;;;;;;;12.67;2.30;;;;;;;26.28;67.31;101499.34;6109250;23;20412;-93
2022/06/17 10:13:04;;;;;;;9.67;2.70;;;;;;;26.99;63.33;101516.97;6157680;23;20409;-94
2022/06/17 10:19:41;;;;;;;7.97;1.80;;;;;;;27.53;61.19;101511.41;6157847;23;20377;-94
2022/06/17 10:29:55;;;;;;;11.40;1.80;;;;;;;28.42;58.86;101517.91;6170821;23;20372;-94
2022/06/17 10:32:26;;;;;;;4.37;1.73;;;;;;;28.57;57.28;101510.44;6162904;23;20419;-94
2022/06/17 10:34:55;;;;;;;16.10;2.87;;;;;;;28.56;56.50;101501.16;6158367;23;20524;-94
2022/06/17 10:38:14;;;;;;;8.10;1.50;;;;;;;28.79;56.44;101506.00;6114224;23;20393;-96
2022/06/17 10:48:31;;;;;;;7.10;1.30;;;;;;;29.02;56.27;101520.44;6162263;23;20408;-93
2022/06/17 10:54:57;;;;;;;8.87;1.63;;;;;;;28.64;57.23;101502.53;6161070;23;20427;-93
2022/06/17 10:58:04;;;;;;;8.00;1.60;;;;;;;28.75;56.77;101521.81;6137152;23;20451;-94
2022/06/17 11:01:11;;;;;;;6.20;1.13;;;;;;;28.72;57.42;101499.88;6157412;23;20428;-95
2022/06/17 11:04:24;;;;;;;5.10;1.20;;;;;;;28.80;57.33;101498.44;6153001;23;20459;-94
2022/06/17 11:07:33;;;;;;;5.40;1.60;;;;;;;28.99;56.67;101493.72;6165081;23;20405;-93
2022/06/17 11:13:36;;;;;;;8.33;1.83;;;;;;;29.10;58.02;101500.06;6150300;23;20498;-94
2022/06/17 11:16:06;;;;;;;7.67;1.43;;;;;;;28.86;58.00;101495.25;6165232;23;20479;-96
2022/06/17 11:19:01;;;;;;;8.83;1.70;;;;;;;28.67;58.33;101496.31;6132380;23;20411;-93
2022/06/17 11:21:45;;;;;;;6.97;1.63;;;;;;;28.58;59.38;101514.94;6168725;23;20384;-95
2022/06/17 11:24:35;;;;;;;6.97;1.20;;;;;;;28.47;59.21;101519.84;6145212;23;20470;-95
2022/06/17 11:30:52;;;;;;;6.53;1.03;;;;;;;27.82;61.09;101513.53;6188342;23;20372;-96
2022/06/17 11:34:00;;;;;;;10.67;1.43;;;;;;;27.62;62.03;101505.22;6137838;23;20787;-96
2022/06/17 11:43:54;;;;;;;4.57;1.60;;;;;;;27.86;62.22;101511.84;6188740;23;20459;-96
2022/06/17 11:49:44;;;;;;;6.50;1.13;;;;;;;28.10;61.08;101521.19;6188074;23;20443;-96
2022/06/17 11:53:11;;;;;;;7.03;1.40;;;;;;;28.25;60.33;101527.91;6162368;23;20412;-96
2022/06/17 11:55:49;;;;;;;10.77;2.00;;;;;;;27.95;60.81;101512.03;6162379;23;20438;-96
2022/06/17 12:02:17;;;;;;;8.33;1.33;;;;;;;27.85;61.04;101521.41;6188142;23;20438;-96
2022/06/17 12:04:59;;;;;;;7.83;1.53;;;;;;;27.69;60.72;101514.19;6115857;23;20399;-93
2022/06/17 12:07:58;;;;;;;6.80;1.20;;;;;;;27.63;60.89;101526.56;6139964;23;20412;-94
2022/06/17 12:11:03;;;;;;;10.07;1.33;;;;;;;27.50;61.11;101505.56;6189472;23;20412;-93
2022/06/17 12:13:52;;;;;;;9.33;1.40;;;;;;;27.56;61.04;101507.19;6157804;23;20957;-93
2022/06/17 12:16:47;;;;;;;8.10;1.40;;;;;;;27.72;60.75;101513.59;6133886;23;20472;-93
2022/06/17 12:20:01;;;;;;;10.63;1.77;;;;;;;27.85;59.96;101513.81;6157760;23;20481;-94
2022/06/17 12:22:42;;;;;;;6.40;1.53;;;;;;;27.93;59.68;101519.91;6105629;23;20406;-95
2022/06/17 12:35:29;;;;;;;6.80;1.70;;;;;;;27.91;58.55;101508.97;6126282;23;20457;-96
2022/06/17 12:42:11;;;;;;;5.70;1.10;;;;;;;28.05;58.00;101518.44;6124934;23;20753;-96
2022/06/17 12:45:30;;;;;;;9.70;1.10;;;;;;;28.21;57.53;101512.75;6124633;23;20725;-95
2022/06/17 12:55:26;;;;;;;5.50;1.47;;;;;;;28.26;57.06;101509.91;6108442;23;20446;-96
2022/06/17 12:58:40;;;;;;;11.37;1.33;;;;;;;28.35;56.60;101502.50;6102655;23;20409;-96
2022/06/17 13:04:59;;;;;;;4.50;0.93;;;;;;;27.87;57.30;101493.84;6156576;23;20372;-94
2022/06/17 13:08:20;;;;;;;6.60;1.20;;;;;;;27.87;57.56;101499.47;6156675;23;20467;-95
2022/06/17 13:14:53;;;;;;;8.23;1.40;;;;;;;28.10;56.86;101498.72;6185695;23;20435;-96
2022/06/17 13:21:28;;;;;;;4.70;1.20;;;;;;;28.10;56.42;101504.34;6187630;23;20426;-96
2022/06/17 13:24:12;;;;;;;8.07;1.33;;;;;;;28.10;56.31;101497.88;6165325;23;20462;-92
2022/06/17 13:30:56;;;;;;;11.40;2.23;;;;;;;28.13;56.38;101515.00;6187142;23;20454;-94
2022/06/17 13:37:18;;;;;;;4.40;1.30;;;;;;;28.24;55.46;101490.50;6187533;23;20908;-94
2022/06/17 13:40:31;;;;;;;7.83;1.27;;;;;;;28.34;55.05;101498.00;6073256;23;20387;-93
2022/06/17 13:43:21;;;;;;;3.87;0.83;;;;;;;28.09;54.54;101483.00;6075799;23;20470;-94
2022/06/17 13:46:34;;;;;;;4.70;1.20;;;;;;;28.06;54.16;101489.22;6050567;23;20418;-93
2022/06/17 13:53:30;;;;;;;5.50;1.30;;;;;;;28.38;53.78;101471.81;6097372;23;20375;-93
2022/06/17 13:59:47;;;;;;;7.80;1.57;;;;;;;28.53;52.25;101490.50;6187363;23;20411;-93
2022/06/17 14:06:07;;;;;;;8.63;1.60;;;;;;;28.44;51.71;101484.69;6187025;23;20475;-94
2022/06/17 14:19:54;;;;;;;6.30;1.13;;;;;;;28.32;51.23;101478.59;6189229;23;20492;-94
2022/06/17 14:23:08;;;;;;;7.83;1.70;;;;;;;28.21;50.94;101470.56;6141348;23;20420;-94
2022/06/17 14:29:41;;;;;;;13.20;1.67;;;;;;;28.05;50.07;101459.41;6191905;23;20375;-96
2022/06/17 14:32:53;;;;;;;5.13;0.80;;;;;;;28.34;48.74;101442.59;6123396;23;20404;-93
2022/06/17 14:35:55;;;;;;;2.87;0.60;;;;;;;28.58;46.75;101447.44;6161971;23;20493;-94
2022/06/17 14:42:19;;;;;;;6.80;1.20;;;;;;;28.44;45.91;101434.06;6188805;23;20383;-94
2022/06/17 14:48:49;;;;;;;10.90;1.13;;;;;;;28.63;46.92;101444.56;6188715;23;20363;-95
2022/06/17 14:51:53;;;;;;;3.47;0.73;;;;;;;28.64;46.56;101441.47;6162365;23;20408;-94
2022/06/17 14:54:40;;;;;;;4.43;0.80;;;;;;;28.76;46.54;101436.25;6164947;23;20495;-96
2022/06/17 14:57:27;;;;;;;13.60;1.20;;;;;;;28.61;45.29;101430.78;6165723;23;20486;-96
2022/06/17 15:00:17;;;;;;;2.70;0.90;;;;;;;28.50;45.00;101434.84;6140087;23;20404;-96
2022/06/17 15:06:45;;;;;;;4.20;0.80;;;;;;;28.52;44.62;101415.69;6187999;23;20395;-94
2022/06/17 15:17:03;;;;;;;10.30;1.00;;;;;;;28.95;43.33;101413.81;6158945;23;20931;-95
2022/06/17 15:24:18;;;;;;;4.33;1.40;;;;;;;28.48;43.23;101407.00;6158517;23;20440;-94
2022/06/17 15:30:51;;;;;;;7.03;1.00;;;;;;;28.08;43.46;101405.44;6159472;23;20469;-94
2022/06/17 15:34:00;;;;;;;3.87;0.90;;;;;;;27.95;43.75;101405.25;6109171;23;20409;-95
2022/06/17 15:40:31;;;;;;;10.20;1.50;;;;;;;27.64;42.70;101399.03;6158831;23;20856;-95
2022/06/17 15:43:31;;;;;;;4.70;1.10;;;;;;;27.61;42.30;101408.03;6110164;23;20467;-96
2022/06/17 15:46:13;;;;;;;3.20;1.03;;;;;;;27.59;43.30;101390.66;6133634;23;20770;-95
2022/06/17 15:56:14;;;;;;;2.27;1.27;;;;;;;27.67;42.87;101382.44;6099596;23;20494;-94
2022/06/17 15:58:48;;;;;;;7.90;1.00;;;;;;;27.84;43.23;101387.66;6071203;23;20447;-95
2022/06/17 16:01:48;;;;;;;5.67;1.17;;;;;;;28.11;43.26;101399.19;6050522;23;20946;-94
2022/06/17 16:04:35;;;;;;;5.60;1.13;;;;;;;28.14;43.68;101381.72;6074703;23;20431;-93
2022/06/17 16:07:16;;;;;;;5.13;0.97;;;;;;;28.38;43.04;101387.44;6098295;23;20396;-94
2022/06/17 16:10:03;;;;;;;5.70;1.23;;;;;;;28.51;43.03;101383.06;6155798;23;20496;-94
2022/06/17 16:12:45;;;;;;;4.77;1.03;;;;;;;28.45;43.60;101373.03;6183015;23;20428;-94
2022/06/17 16:19:19;;;;;;;9.50;1.20;;;;;;;28.43;43.10;101366.88;6164227;23;20424;-96
2022/06/17 16:22:08;;;;;;;3.67;1.20;;;;;;;28.49;43.57;101376.91;6113304;23;20417;-96
2022/06/17 16:24:54;;;;;;;9.03;1.23;;;;;;;28.31;44.33;101361.63;6158465;23;20412;-95
2022/06/17 16:27:49;;;;;;;7.17;2.50;;;;;;;28.11;44.94;101359.84;6135820;23;20491;-93
2022/06/17 16:30:37;;;;;;;7.27;2.80;;;;;;;28.24;45.38;101374.38;6157155;23;20479;-95
2022/06/17 16:33:24;;;;;;;7.20;3.23;;;;;;;28.06;45.55;101357.09;6163140;23;20385;-96
2022/06/17 16:35:58;;;;;;;5.97;0.97;;;;;;;28.18;45.75;101359.50;6111031;23;20448;-96
2022/06/17 16:38:52;;;;;;;9.23;4.07;;;;;;;28.12;45.64;101352.25;6158109;23;20467;-96
2022/06/17 16:44:48;;;;;;;4.47;1.70;;;;;;;27.90;46.22;101338.72;6159287;23;20401;-95
2022/06/17 16:47:16;;;;;;;5.63;1.90;;;;;;;27.67;46.20;101331.03;6158075;23;20404;-96
2022/06/17 16:49:48;;;;;;;8.03;2.80;;;;;;;27.57;46.70;101329.13;6141700;23;20428;-95
2022/06/17 16:52:28;;;;;;;3.70;1.80;;;;;;;27.77;45.96;101347.78;6157018;23;20448;-95
2022/06/17 16:54:56;;;;;;;5.40;1.60;;;;;;;27.58;46.36;101332.78;6184095;23;20495;-94
2022/06/17 16:57:37;;;;;;;5.83;1.10;;;;;;;27.31;47.04;101342.53;6144613;23;20440;-95
2022/06/17 17:03:47;;;;;;;5.10;1.03;;;;;;;27.01;47.41;101323.03;6162736;23;20431;-94
2022/06/17 17:06:30;;;;;;;9.13;1.40;;;;;;;26.95;48.07;101329.81;6136455;23;20479;-94
2022/06/17 17:08:58;;;;;;;7.70;1.57;;;;;;;26.81;49.45;101336.03;6136030;23;20413;-94
2022/06/17 17:11:27;;;;;;;5.70;0.97;;;;;;;26.66;49.91;101321.25;6135642;23;20495;-95
2022/06/17 17:14:20;;;;;;;4.00;1.10;;;;;;;26.77;50.69;101326.50;6139457;23;20424;-96
2022/06/17 17:20:35;;;;;;;4.30;1.20;;;;;;;26.44;51.26;101332.81;6159174;23;20384;-96
2022/06/17 17:23:25;;;;;;;6.50;1.10;;;;;;;26.36;52.53;101342.63;6085715;23;20413;-95
2022/06/17 17:26:34;;;;;;;7.60;1.77;;;;;;;26.38;53.08;101336.75;6158849;23;20392;-96
2022/06/17 17:29:22;;;;;;;3.13;0.80;;;;;;;26.29;52.09;101344.03;6132508;23;20722;-96
2022/06/17 17:32:14;;;;;;;4.63;1.17;;;;;;;26.20;52.59;101356.94;6113559;23;20430;-95
2022/06/17 17:35:29;;;;;;;8.30;1.30;;;;;;;26.10;53.03;101347.44;6133581;23;20409;-95
2022/06/17 17:41:57;;;;;;;12.30;1.87;;;;;;;25.70;56.00;101353.94;6157754;23;20368;-95
2022/06/17 17:44:43;;;;;;;5.63;1.10;;;;;;;25.50;57.55;101327.84;6137247;23;20412;-96
2022/06/17 17:47:24;;;;;;;7.07;1.30;;;;;;;25.53;57.66;101341.28;6110212;23;20809;-95
2022/06/17 17:50:25;;;;;;;8.37;1.60;;;;;;;25.58;57.52;101356.13;6087876;23;20966;-96
2022/06/17 17:53:14;;;;;;;14.73;1.70;;;;;;;25.55;58.51;101350.25;6134540;23;20412;-96
2022/06/17 17:56:05;;;;;;;7.40;1.40;;;;;;;25.39;59.17;101347.44;6159388;23;20444;-95
2022/06/17 17:58:49;;;;;;;3.50;0.90;;;;;;;25.28;59.90;101348.53;6134557;23;20923;-94
2022/06/17 18:01:39;;;;;;;5.70;1.03;;;;;;;25.34;58.92;101360.59;6135539;23;20442;-96
2022/06/17 18:04:12;;;;;;;11.43;1.83;;;;;;;25.13;59.25;101348.50;6134700;23;20483;-96
2022/06/17 18:06:40;;;;;;;6.57;1.60;;;;;;;25.12;58.97;101364.44;6136830;23;20491;-96
2022/06/17 18:09:16;;;;;;;7.03;1.40;;;;;;;25.10;57.82;101346.25;6111778;23;20413;-96
2022/06/17 18:12:13;;;;;;;3.60;1.00;;;;;;;24.96;58.58;101357.13;6087872;23;20895;-96
2022/06/17 18:14:54;;;;;;;7.30;1.10;;;;;;;24.88;59.08;101353.97;6147805;23;20474;-95
2022/06/17 18:21:14;;;;;;;9.60;1.60;;;;;;;24.67;61.00;101339.91;6190026;23;20890;-96
2022/06/17 18:24:24;;;;;;;5.00;1.27;;;;;;;24.67;62.28;101367.88;6140864;23;20408;-96
2022/06/17 18:27:04;;;;;;;6.50;1.23;;;;;;;24.42;63.59;101348.19;6164114;23;20411;-95
2022/06/17 18:29:35;;;;;;;9.03;1.20;;;;;;;24.43;63.06;101356.31;6140425;23;20412;-96
2022/06/17 18:32:06;;;;;;;4.50;1.47;;;;;;;24.32;64.25;101359.31;6114628;23;20412;-96
2022/06/17 18:45:07;;;;;;;5.33;1.40;;;;;;;24.01;67.99;101361.03;6167676;23;20404;-96
2022/06/17 18:47:42;;;;;;;6.27;1.70;;;;;;;23.83;68.51;101350.28;6189554;23;20792;-96
2022/06/17 18:50:19;;;;;;;8.67;2.20;;;;;;;23.75;69.41;101365.56;6140505;23;20408;-96
2022/06/17 18:56:43;;;;;;;6.60;1.50;;;;;;;23.62;71.48;101369.66;6191127;23;20442;-95
2022/06/17 18:59:52;;;;;;;9.40;1.40;;;;;;;23.39;72.79;101356.84;6141136;23;20400;-96
2022/06/17 19:02:31;;;;;;;2.97;1.17;;;;;;;23.24;73.62;101359.50;6164018;23;20513;-96
2022/06/17 19:05:51;;;;;;;6.30;1.23;;;;;;;23.16;74.32;101354.38;6164009;23;20415;-94
2022/06/17 19:21:58;;;;;;;11.33;1.60;;;;;;;22.63;78.99;101333.66;6189402;23;20388;-94
2022/06/17 19:28:15;;;;;;;3.13;0.90;;;;;;;22.43;81.13;101332.53;6178510;23;20372;-93
2022/06/17 19:30:50;;;;;;;11.23;1.20;;;;;;;22.33;81.69;101330.44;6138866;23;20466;-93
2022/06/17 19:33:29;;;;;;;6.10;1.33;;;;;;;22.27;82.05;101337.06;6117651;23;20381;-93
2022/06/17 19:39:49;;;;;;;6.03;1.53;;;;;;;22.19;82.99;101359.78;6188940;23;20400;-92
2022/06/17 19:42:21;;;;;;;8.13;1.87;;;;;;;22.21;82.61;101357.59;6114619;23;20411;-93
2022/06/17 19:45:04;;;;;;;5.87;1.17;;;;;;;22.14;83.40;101360.53;6163310;23;20419;-93